Raymond, MS (39154)

5:26 AM CST on November 20, 2017 (GMT -0600)
Countrywood | | Change Station
Active Advisory: Freeze Warning

Elev 338 ft 32.32 °N, 90.34 °W | Updated 4 minutes ago

Clear
Clear
30.9 °F
Feels Like 22 °F
N
10.5
Wind Variable Wind from SW

Today
High -- | Low -- °F
--% Chance of Precip.
Yesterday
High -- | Low -- °F
Precip. -- in
Pressure 30.24 in
Visibility 8.0 miles
Clouds Clear
Windchill 22 °F
Dew Point 29 °F
Humidity 94%
Rainfall 0.00 in
Snow Depth Not available.
6:35 AM 4:58 PM
Waxing Crescent, 4% visible
METAR KJVW 201115Z AUTO 00000KT 8SM CLR M01/M01 A3024 RMK AO2
Pressure 30.24 in
Visibility 8.0 miles
Clouds Clear
Windchill 22 °F
Dew Point 29 °F
Humidity 94%
Rainfall 0.00 in
Snow Depth Not available.
6:35 AM 4:58 PM
Waxing Crescent, 4% visible
METAR KJVW 201115Z AUTO 00000KT 8SM CLR M01/M01 A3024 RMK AO2

Get Your Daily Forecast Email!

Thanks for signing up!

Be on the lookout for a verification email in your inbox.

You'll start receiving severe weather alerts in your inbox..

×

10-Day Weather Forecast

Almanac

Astronomy

Nov. 20, 2017 Rise Set
Actual Time
Civil Twilight
Nautical Twilight
Astronomical Twilight
Moon
Length of Visible Light
Length of Day
Tomorrow will be .
, % of the Moon is Illuminated

Today's Extremes

State Highs State Lows

Community

WunderPhotos

Category 6

Welcome to Category 6. This is the collective home for Weather Underground's featured writeups by Dr. Jeff Masters (right), Bob Henson (left), Chris Burt, and other regular contributors.

Nearby

Air Quality

  Air Quality AQ Index Pollutant
Not available.

Snow Depth

Station Depth Elevation

Earthquake Activity

City Distance Mag. Time & Date
Minimum magnitude displayed is 2.5.

Coastal Water Temperatures

Place Temperature

Stations

Nearby Weather Stations

Station Location Temp. Windchill Dew Point Humidity Wind Precip. Elev Updated Type
                   

Watches & Warnings

Freeze Warning
Issued: 5:16 AM CST Nov. 20, 2017 – National Weather Service

... Freeze warning remains in effect until 8 am CST this morning...

* temperature... currently at or below freezing. Temperatures will
rise above freezing shortly after sunrise.

* Impacts... freezing temperatures could damage unprotected
vegetation.

Precautionary/preparedness actions...

A freeze warning means sub-freezing temperatures are imminent or
highly likely. These conditions will kill crops and other
sensitive vegetation.